createdAt,value
2016-07-04T16:22:32.388Z,25.08
2016-07-04T16:23:32.381Z,25.08
2016-07-04T16:24:32.401Z,24.96
2016-07-04T16:25:31.796Z,24.91
2016-07-04T16:26:31.816Z,24.87
2016-07-04T16:27:31.800Z,24.8
2016-07-04T16:28:31.836Z,24.73
2016-07-04T16:29:32.686Z,24.67
2016-07-04T16:30:32.483Z,24.62
2016-07-04T16:31:32.499Z,24.62
2016-07-04T16:32:32.511Z,24.58
2016-07-04T16:33:32.506Z,24.46
2016-07-04T16:34:32.119Z,24.45
2016-07-04T16:35:32.525Z,24.37
2016-07-04T16:36:47.197Z,24.24
2016-07-04T16:37:32.597Z,24.18
2016-07-04T16:38:32.584Z,24.16
2016-07-04T16:39:32.796Z,24.02
2016-07-04T16:40:32.002Z,24
2016-07-04T16:41:32.221Z,23.94
2016-07-04T16:42:32.428Z,23.98
2016-07-04T16:44:01.719Z,23.9
2016-07-04T16:44:32.701Z,23.87
2016-07-04T16:45:32.701Z,23.8
2016-07-04T16:46:32.702Z,23.79
2016-07-04T16:47:32.930Z,23.73
2016-07-04T16:48:32.723Z,23.75
2016-07-04T16:49:32.123Z,23.73
2016-07-04T16:50:33.083Z,23.7
2016-07-04T16:51:33.800Z,23.65
2016-07-04T16:52:33.016Z,23.66
2016-07-04T16:53:47.842Z,23.69
2016-07-04T16:54:33.640Z,23.57
2016-07-04T16:55:33.034Z,23.65
2016-07-04T16:56:33.856Z,23.54
2016-07-04T16:58:32.891Z,23.54
2016-07-04T16:59:48.720Z,23.57
2016-07-04T17:00:33.124Z,23.58
2016-07-04T17:01:33.755Z,23.69
2016-07-04T17:02:47.747Z,23.55
2016-07-04T17:03:48.015Z,23.66
2016-07-04T17:04:33.155Z,23.66
2016-07-04T17:05:33.580Z,23.6
2016-07-04T17:06:48.034Z,23.63
2016-07-04T17:07:48.037Z,23.54
2016-07-04T17:08:47.219Z,23.51
2016-07-04T17:09:34.066Z,23.63
2016-07-04T17:10:33.421Z,23.65
2016-07-04T17:11:33.453Z,23.61
2016-07-04T17:13:33.093Z,23.65
2016-07-04T17:15:33.286Z,23.7
2016-07-04T17:16:33.752Z,23.68
2016-07-04T17:17:33.531Z,23.65
2016-07-04T17:18:34.166Z,23.79
2016-07-04T17:19:33.992Z,23.8
2016-07-04T17:20:47.787Z,23.84
2016-07-04T17:22:33.188Z,23.93
2016-07-04T17:23:34.054Z,23.91
2016-07-04T17:26:47.651Z,23.93
2016-07-04T17:27:33.536Z,23.97
2016-07-04T17:28:34.124Z,23.98
2016-07-04T17:30:33.558Z,24.02
2016-07-04T17:31:34.547Z,24.02
2016-07-04T17:32:34.168Z,24.02
2016-07-04T17:33:48.404Z,24.03
2016-07-04T17:34:33.322Z,23.95
2016-07-04T17:35:48.222Z,23.95
2016-07-04T17:36:34.415Z,24
2016-07-04T17:37:34.035Z,23.94
2016-07-04T17:38:33.999Z,23.94
2016-07-04T17:39:48.025Z,23.93
2016-07-04T17:40:34.053Z,23.98
2016-07-04T17:41:34.064Z,23.97
2016-07-04T17:42:47.865Z,23.94
2016-07-04T17:43:35.219Z,24
2016-07-04T17:44:33.683Z,23.91
2016-07-04T17:47:48.758Z,23.9
2016-07-04T17:48:35.183Z,23.87
2016-07-04T17:49:34.170Z,23.87
2016-07-04T17:50:33.774Z,23.87
2016-07-04T17:51:48.403Z,23.83
2016-07-04T17:52:34.409Z,23.83
2016-07-04T17:53:34.455Z,23.85
2016-07-04T17:54:33.188Z,23.85
2016-07-04T17:55:48.454Z,23.83
2016-07-04T17:56:48.865Z,23.78
2016-07-04T17:57:49.329Z,23.88
2016-07-04T17:58:34.725Z,23.76
2016-07-04T17:59:34.500Z,23.78
2016-07-04T18:01:33.696Z,23.85
2016-07-04T18:02:35.546Z,23.84
2016-07-04T18:03:33.690Z,23.9
2016-07-04T18:04:34.391Z,23.79
2016-07-04T18:05:48.364Z,23.83
2016-07-04T18:06:34.817Z,23.85
2016-07-04T18:07:34.401Z,23.79
2016-07-04T18:08:33.773Z,23.75
2016-07-04T18:09:33.175Z,23.66
2016-07-04T18:10:48.864Z,23.6
2016-07-04T18:11:35.034Z,23.5
2016-07-04T18:12:48.887Z,23.57
2016-07-04T18:13:34.896Z,23.54
2016-07-04T18:14:34.693Z,23.38
2016-07-04T18:15:34.722Z,23.42
2016-07-04T18:16:33.889Z,23.27
2016-07-04T18:17:34.507Z,23.22
2016-07-04T18:18:34.722Z,23.15
2016-07-04T18:19:34.578Z,23.2
2016-07-04T18:20:34.580Z,23.02
2016-07-04T18:22:48.581Z,22.91
2016-07-04T18:23:33.994Z,22.88
2016-07-04T18:24:34.842Z,22.79
2016-07-04T18:25:34.820Z,22.79
2016-07-04T18:27:35.072Z,22.73
2016-07-04T18:28:48.874Z,22.64
2016-07-04T18:29:34.045Z,22.58
2016-07-04T18:30:34.060Z,22.49
2016-07-04T18:31:33.885Z,22.46
2016-07-04T18:32:34.688Z,22.42
2016-07-04T18:33:49.116Z,22.36
2016-07-04T18:36:34.351Z,22.17
2016-07-04T18:37:34.557Z,22.07
2016-07-04T18:39:49.449Z,22.03
2016-07-04T18:40:34.795Z,22.02
2016-07-04T18:41:34.177Z,21.94
2016-07-04T18:42:34.611Z,21.88
2016-07-04T18:43:34.624Z,21.8
2016-07-04T18:44:49.479Z,21.77
2016-07-04T18:45:35.067Z,21.8
2016-07-04T18:46:35.064Z,21.75
2016-07-04T18:47:48.481Z,21.68
2016-07-04T18:48:35.726Z,21.67
2016-07-04T18:49:34.486Z,21.64
2016-07-04T18:50:34.064Z,21.56
2016-07-04T18:51:34.283Z,21.49
2016-07-04T18:52:34.519Z,21.43
2016-07-04T18:53:34.300Z,21.37
2016-07-04T18:54:48.760Z,21.34
2016-07-04T18:55:34.121Z,21.25
2016-07-04T18:56:34.162Z,21.17
2016-07-04T18:57:34.157Z,21.16
2016-07-04T18:58:35.111Z,21.03
2016-07-04T18:59:34.817Z,21.01
2016-07-04T19:00:35.446Z,20.99
2016-07-04T19:01:35.779Z,20.98
2016-07-04T19:02:50.224Z,20.88
2016-07-04T19:04:37.418Z,20.74
2016-07-04T19:05:36.519Z,20.64
2016-07-04T19:06:35.950Z,20.66
2016-07-04T19:08:36.918Z,20.57
2016-07-04T19:09:35.861Z,20.55
2016-07-04T19:10:35.789Z,20.5
2016-07-04T19:11:34.521Z,20.42
2016-07-04T19:12:37.327Z,20.36
2016-07-04T19:13:34.524Z,20.31
2016-07-04T19:14:34.945Z,20.31
2016-07-04T19:15:49.628Z,20.24
2016-07-04T19:17:34.353Z,20.18
2016-07-04T19:18:49.204Z,20.08
2016-07-04T19:19:34.169Z,20.1
2016-07-04T19:20:34.779Z,20.05
2016-07-04T19:21:34.632Z,19.98
2016-07-04T19:22:34.845Z,19.91
2016-07-04T19:23:49.256Z,19.95
2016-07-04T19:24:35.478Z,19.91
2016-07-04T19:25:35.315Z,19.8
2016-07-04T19:26:35.062Z,19.84
2016-07-04T19:27:48.968Z,19.8
2016-07-04T19:28:34.487Z,19.76
2016-07-04T19:29:34.682Z,19.68
2016-07-04T19:30:34.105Z,19.65
2016-07-04T19:31:49.760Z,19.65
2016-07-04T19:32:34.673Z,19.62
2016-07-04T19:33:35.657Z,19.59
2016-07-04T19:34:34.815Z,19.51
2016-07-04T19:35:34.310Z,19.46
2016-07-04T19:36:34.389Z,19.47
2016-07-04T19:37:35.042Z,19.44
2016-07-04T19:39:34.574Z,19.32
2016-07-04T19:40:49.061Z,19.32
2016-07-04T19:41:35.911Z,19.32
2016-07-04T19:42:49.430Z,19.18
2016-07-04T19:43:50.290Z,19.21
2016-07-04T19:44:34.839Z,19.11
2016-07-04T19:45:35.461Z,19.11
2016-07-04T19:46:34.857Z,19.13
2016-07-04T19:47:34.860Z,18.99
2016-07-04T19:48:34.862Z,19
2016-07-04T19:50:35.086Z,18.94
2016-07-04T19:51:34.879Z,18.92
2016-07-04T19:52:34.289Z,18.91
2016-07-04T19:53:34.900Z,18.85
2016-07-04T19:54:35.114Z,18.91
2016-07-04T19:55:34.299Z,18.81
2016-07-04T19:56:34.309Z,18.84
2016-07-04T19:57:34.327Z,18.7
2016-07-04T19:58:34.635Z,18.73
2016-07-04T19:59:50.197Z,18.72
2016-07-04T20:00:35.830Z,18.72
2016-07-04T20:01:36.252Z,18.7
2016-07-04T20:02:35.846Z,18.65
2016-07-04T20:03:34.780Z,18.63
2016-07-04T20:05:34.397Z,18.54
2016-07-04T20:06:49.860Z,18.54
2016-07-04T20:07:36.064Z,18.47
2016-07-04T20:08:35.697Z,18.45
2016-07-04T20:09:49.263Z,18.44
2016-07-04T20:10:49.267Z,18.33
2016-07-04T20:11:35.531Z,18.33
2016-07-04T20:12:35.686Z,18.33
2016-07-04T20:13:34.858Z,18.32
2016-07-04T20:14:35.067Z,18.25
2016-07-04T20:15:49.717Z,18.26
2016-07-04T20:16:34.487Z,18.18
2016-07-04T20:17:50.561Z,18.17
2016-07-04T20:18:35.308Z,18.25
2016-07-04T20:19:35.519Z,18.18
2016-07-04T20:20:34.713Z,18.23
2016-07-04T20:21:35.336Z,18.21
2016-07-04T20:22:35.544Z,18.17
2016-07-04T20:23:34.530Z,18.15
2016-07-04T20:24:50.612Z,18.14
2016-07-04T20:25:50.003Z,18.1
2016-07-04T20:27:04.236Z,18.1
2016-07-04T20:27:35.185Z,18.05
2016-07-04T20:28:35.252Z,18
2016-07-04T20:29:35.705Z,17.97
2016-07-04T20:30:50.450Z,18.02
2016-07-04T20:31:50.248Z,17.97
2016-07-04T20:32:36.009Z,17.95
2016-07-04T20:33:35.859Z,17.93
2016-07-04T20:34:35.868Z,17.92
2016-07-04T20:35:35.265Z,17.92
2016-07-04T20:36:50.292Z,17.82
2016-07-04T20:37:35.926Z,17.81
2016-07-04T20:38:35.293Z,17.71
2016-07-04T20:39:35.319Z,17.78
2016-07-04T20:40:35.319Z,17.75
2016-07-04T20:41:35.519Z,17.68
2016-07-04T20:42:35.336Z,17.66
2016-07-04T20:43:35.351Z,17.68
2016-07-04T20:44:35.350Z,17.64
2016-07-04T20:45:35.355Z,17.51
2016-07-04T20:47:35.355Z,17.55
2016-07-04T20:48:35.363Z,17.48
2016-07-04T20:49:35.361Z,17.54
2016-07-04T20:50:35.401Z,17.43
2016-07-04T20:51:35.610Z,17.44
2016-07-04T20:52:35.594Z,17.38
2016-07-04T20:53:35.395Z,17.37
2016-07-04T20:55:49.823Z,17.36
2016-07-04T20:56:36.052Z,17.33
2016-07-04T20:58:04.673Z,17.34
2016-07-04T20:58:35.396Z,17.23
2016-07-04T20:59:35.438Z,17.25
2016-07-04T21:00:36.069Z,17.18
2016-07-04T21:01:49.869Z,17.21
2016-07-04T21:02:35.464Z,17.19
2016-07-04T21:03:49.679Z,17.07
2016-07-04T21:04:50.332Z,17.06
2016-07-04T21:05:36.094Z,17.18
2016-07-04T21:06:35.486Z,17.15
2016-07-04T21:07:35.496Z,17.15
2016-07-04T21:08:36.134Z,17.12
2016-07-04T21:09:36.129Z,17
2016-07-04T21:10:50.331Z,17.01
2016-07-04T21:11:35.538Z,17
2016-07-04T21:12:35.995Z,16.97
2016-07-04T21:13:35.546Z,16.94
2016-07-04T21:14:35.551Z,17
2016-07-04T21:15:35.554Z,17
2016-07-04T21:16:35.561Z,17.01
2016-07-04T21:17:35.780Z,16.94
2016-07-04T21:18:35.791Z,16.88
2016-07-04T21:19:35.595Z,16.89
2016-07-04T21:20:36.216Z,16.89
2016-07-04T21:21:35.607Z,16.83
2016-07-04T21:22:35.615Z,16.89
2016-07-04T21:23:35.620Z,16.91
2016-07-04T21:24:36.699Z,16.91
2016-07-04T21:25:50.476Z,16.82
2016-07-04T21:26:36.884Z,16.83
2016-07-04T21:27:35.906Z,16.86
2016-07-04T21:28:35.655Z,16.82
2016-07-04T21:29:50.500Z,16.76
2016-07-04T21:30:36.293Z,16.76
2016-07-04T21:31:36.301Z,16.73
2016-07-04T21:32:36.308Z,16.83
2016-07-04T21:33:36.301Z,16.78
2016-07-04T21:34:50.306Z,16.68
2016-07-04T21:35:50.516Z,16.79
2016-07-04T21:36:50.114Z,16.73
2016-07-04T21:37:50.533Z,16.83
2016-07-04T21:38:35.725Z,16.71
2016-07-04T21:39:50.580Z,16.73
2016-07-04T21:40:36.553Z,16.71
2016-07-04T21:41:36.368Z,16.67
2016-07-04T21:42:49.955Z,16.73
2016-07-04T21:43:50.165Z,16.67
2016-07-04T21:44:49.969Z,16.75
2016-07-04T21:45:35.322Z,16.61
2016-07-04T21:46:35.796Z,16.63
2016-07-04T21:48:35.560Z,16.63
2016-07-04T21:49:36.624Z,16.64
2016-07-04T21:50:36.627Z,16.5
2016-07-04T21:51:36.806Z,16.57
2016-07-04T21:52:35.380Z,16.53
2016-07-04T21:53:36.422Z,16.5
2016-07-04T21:54:36.455Z,16.52
2016-07-04T21:55:36.483Z,16.52
2016-07-04T21:56:36.523Z,16.53
2016-07-04T21:58:35.220Z,16.42
2016-07-04T21:59:36.701Z,16.48
2016-07-04T22:00:36.701Z,16.43
2016-07-04T22:01:36.707Z,16.39
2016-07-04T22:02:36.719Z,16.38
2016-07-04T22:03:36.730Z,16.35
2016-07-04T22:04:35.268Z,16.34
2016-07-04T22:05:37.154Z,16.33
2016-07-04T22:06:36.752Z,16.31
2016-07-04T22:07:36.736Z,16.3
2016-07-04T22:08:36.969Z,16.17
2016-07-04T22:09:36.579Z,16.27
2016-07-04T22:10:36.345Z,16.14
2016-07-04T22:11:36.582Z,16.25
2016-07-04T22:12:36.951Z,16.14
2016-07-04T22:13:36.598Z,16.15
2016-07-04T22:14:51.007Z,16.12
2016-07-04T22:15:36.180Z,16.05
2016-07-04T22:16:36.183Z,16.05
2016-07-04T22:17:36.594Z,16.04
2016-07-04T22:18:36.195Z,16.02
2016-07-04T22:20:51.654Z,16.01
2016-07-04T22:21:36.629Z,16.02
2016-07-04T22:22:36.669Z,16.02
2016-07-04T22:23:35.701Z,16.01
2016-07-04T22:24:36.015Z,15.94
2016-07-04T22:25:51.688Z,16
2016-07-04T22:26:36.063Z,15.96
2016-07-04T22:27:50.890Z,15.92
2016-07-04T22:29:05.298Z,15.86
2016-07-04T22:29:36.048Z,15.94
2016-07-04T22:30:36.079Z,15.87
2016-07-04T22:31:50.909Z,15.89
2016-07-04T22:32:36.678Z,15.82
2016-07-04T22:33:36.073Z,15.82
2016-07-04T22:35:36.089Z,15.74
2016-07-04T22:36:36.101Z,15.76
2016-07-04T22:37:35.652Z,15.72
2016-07-04T22:39:36.734Z,15.68
2016-07-04T22:40:36.156Z,15.69
2016-07-04T22:41:50.334Z,15.71
2016-07-04T22:43:05.196Z,15.62
2016-07-04T22:43:50.544Z,15.62
2016-07-04T22:44:35.497Z,15.65
2016-07-04T22:45:36.140Z,15.62
2016-07-04T22:46:50.589Z,15.56
2016-07-04T22:47:36.365Z,15.53
2016-07-04T22:48:35.935Z,15.64
2016-07-04T22:49:50.602Z,15.6
2016-07-04T22:50:50.587Z,15.59
2016-07-04T22:51:35.769Z,15.59
2016-07-04T22:52:35.568Z,15.57
2016-07-04T22:53:35.561Z,15.54
2016-07-04T22:54:35.792Z,15.53
2016-07-04T22:55:35.566Z,15.53
2016-07-04T22:56:35.598Z,15.39
2016-07-04T22:57:36.430Z,15.44
2016-07-04T22:58:36.216Z,15.41
2016-07-04T22:59:36.223Z,15.38
2016-07-04T23:00:36.235Z,15.46
2016-07-04T23:01:36.244Z,15.39
2016-07-04T23:02:36.445Z,15.36
2016-07-04T23:03:36.639Z,15.38
2016-07-04T23:04:35.655Z,15.32
2016-07-04T23:05:36.460Z,15.29
2016-07-04T23:06:36.896Z,15.32
2016-07-04T23:07:36.895Z,15.27
2016-07-04T23:08:36.901Z,15.28
2016-07-04T23:09:36.904Z,15.28
2016-07-04T23:10:36.708Z,15.35
2016-07-04T23:11:36.922Z,15.28
2016-07-04T23:12:36.320Z,15.23
2016-07-04T23:13:36.536Z,15.21
2016-07-04T23:14:50.936Z,15.25
2016-07-04T23:15:36.954Z,15.2
2016-07-04T23:16:50.990Z,15.25
2016-07-04T23:17:35.908Z,15.32
2016-07-04T23:18:36.335Z,15.31
2016-07-04T23:19:36.313Z,15.34
2016-07-04T23:20:50.966Z,15.32
2016-07-04T23:21:36.130Z,15.32
2016-07-04T23:22:35.922Z,15.21
2016-07-04T23:23:35.733Z,15.27
2016-07-04T23:24:35.740Z,15.21
2016-07-04T23:25:35.744Z,15.25
2016-07-04T23:26:35.740Z,15.25
2016-07-04T23:27:35.770Z,15.23
2016-07-04T23:28:36.390Z,15.27
2016-07-04T23:29:35.972Z,15.28
2016-07-04T23:30:35.784Z,15.25
2016-07-04T23:31:36.604Z,15.27
2016-07-04T23:32:36.815Z,15.28
2016-07-04T23:33:36.009Z,15.2
2016-07-04T23:34:35.805Z,15.25
2016-07-04T23:35:36.631Z,15.29
2016-07-04T23:36:36.489Z,15.21
2016-07-04T23:37:36.441Z,15.21
2016-07-04T23:38:36.444Z,15.27
2016-07-04T23:39:37.691Z,15.2
2016-07-04T23:40:36.465Z,15.16
2016-07-04T23:41:51.524Z,15.21
2016-07-04T23:42:37.110Z,15.23
2016-07-04T23:43:37.538Z,15.17
2016-07-04T23:44:51.725Z,15.2
2016-07-04T23:45:36.270Z,15.2
2016-07-04T23:46:36.085Z,15.21
2016-07-04T23:47:36.296Z,15.16
2016-07-04T23:48:36.507Z,15.14
2016-07-04T23:49:50.943Z,15.11
2016-07-04T23:50:36.303Z,15.06
2016-07-04T23:51:37.775Z,15.02
2016-07-04T23:52:51.583Z,15.02
2016-07-04T23:53:36.527Z,15.02
2016-07-04T23:54:36.537Z,15.03
2016-07-04T23:55:36.944Z,14.92
2016-07-04T23:56:36.562Z,14.95
2016-07-04T23:57:36.971Z,15.02
2016-07-04T23:58:36.567Z,14.99
